createdAt,value
2022-08-18T00:02:30.165Z,46.80
2022-08-18T00:05:00.337Z,46.47
2022-08-18T00:07:32.303Z,46.65
2022-08-18T00:10:01.268Z,46.63
2022-08-18T00:12:39.496Z,47.15
2022-08-18T00:15:09.550Z,46.93
2022-08-18T00:17:38.018Z,47.29
2022-08-18T00:20:09.196Z,47.43
2022-08-18T00:22:36.995Z,47.41
2022-08-18T00:25:04.769Z,47.41
2022-08-18T00:27:32.482Z,47.39
2022-08-18T00:30:02.508Z,47.46
2022-08-18T00:32:38.823Z,47.73
2022-08-18T00:35:28.774Z,47.70
2022-08-18T00:37:59.848Z,47.80
2022-08-18T00:40:40.665Z,47.85
2022-08-18T00:43:14.432Z,48.24
2022-08-18T00:45:43.795Z,47.82
2022-08-18T00:48:13.732Z,47.97
2022-08-18T00:50:54.230Z,48.38
2022-08-18T00:53:42.216Z,48.76
2022-08-18T00:56:25.543Z,48.85
2022-08-18T00:58:59.101Z,48.71
2022-08-18T01:01:30.854Z,48.82
2022-08-18T01:04:09.181Z,49.04
2022-08-18T01:07:04.692Z,49.25
2022-08-18T01:09:34.039Z,48.82
2022-08-18T01:12:01.731Z,48.94
2022-08-18T01:14:51.675Z,49.10
2022-08-18T01:17:37.848Z,49.33
2022-08-18T01:20:24.910Z,49.47
2022-08-18T01:22:58.172Z,49.55
2022-08-18T01:25:44.385Z,49.58
2022-08-18T01:28:11.887Z,49.64
2022-08-18T01:30:58.477Z,50.19
2022-08-18T01:33:32.622Z,49.91
2022-08-18T01:36:04.656Z,50.11
2022-08-18T01:38:32.328Z,49.96
2022-08-18T01:41:26.492Z,49.91
2022-08-18T01:43:49.722Z,49.86
2022-08-18T01:46:21.477Z,50.18
2022-08-18T01:48:49.441Z,50.37
2022-08-18T01:51:19.808Z,50.36
2022-08-18T01:53:48.796Z,50.21
2022-08-18T01:56:17.882Z,50.60
2022-08-18T01:58:48.172Z,51.13
2022-08-18T02:01:16.550Z,50.57
2022-08-18T02:03:49.325Z,51.08
2022-08-18T02:06:32.385Z,50.83
2022-08-18T02:09:01.397Z,50.64
2022-08-18T02:11:29.004Z,50.81
2022-08-18T02:13:56.559Z,51.01
2022-08-18T02:16:24.540Z,51.01
2022-08-18T02:19:12.530Z,51.10
2022-08-18T02:21:40.207Z,51.25
2022-08-18T02:24:11.032Z,51.66
2022-08-18T02:26:38.716Z,51.47
2022-08-18T02:29:06.224Z,51.48
2022-08-18T02:31:33.880Z,51.40
2022-08-18T02:34:07.312Z,52.01
2022-08-18T02:36:37.267Z,51.30
2022-08-18T02:39:04.989Z,51.27
2022-08-18T02:41:33.209Z,51.59
2022-08-18T02:44:01.131Z,51.31
2022-08-18T02:46:31.119Z,51.18
2022-08-18T02:49:01.703Z,51.72
2022-08-18T02:51:29.410Z,51.23
2022-08-18T02:54:00.226Z,51.34
2022-08-18T02:56:41.937Z,51.53
2022-08-18T02:59:17.390Z,51.28
2022-08-18T03:01:47.828Z,51.42
2022-08-18T03:04:24.034Z,51.52
2022-08-18T03:06:56.409Z,50.97
2022-08-18T03:09:24.616Z,50.90
2022-08-18T03:11:53.641Z,50.84
2022-08-18T03:14:21.529Z,50.89
2022-08-18T03:16:54.072Z,50.85
2022-08-18T03:19:30.880Z,50.78
2022-08-18T03:22:03.378Z,50.50
2022-08-18T03:24:32.711Z,50.61
2022-08-18T03:27:08.020Z,50.77
2022-08-18T03:29:36.079Z,50.20
2022-08-18T03:32:06.775Z,50.26
2022-08-18T03:34:35.032Z,50.07
2022-08-18T03:37:02.872Z,50.08
2022-08-18T03:39:30.456Z,50.05
2022-08-18T03:42:01.611Z,49.83
2022-08-18T03:44:32.455Z,49.90
2022-08-18T03:47:03.263Z,49.52
2022-08-18T03:49:33.759Z,49.66
2022-08-18T03:52:03.985Z,49.52
2022-08-18T03:54:32.600Z,49.42
2022-08-18T03:57:00.988Z,49.86
2022-08-18T03:59:32.041Z,50.05
2022-08-18T04:02:02.623Z,49.97
2022-08-18T04:04:30.436Z,49.97
2022-08-18T04:07:01.192Z,50.19
2022-08-18T04:09:30.873Z,50.12
2022-08-18T04:12:02.896Z,50.00
2022-08-18T04:14:32.787Z,49.89
2022-08-18T04:17:00.544Z,49.58
2022-08-18T04:19:28.444Z,49.44
2022-08-18T04:21:57.826Z,49.34
2022-08-18T04:24:28.243Z,48.94
2022-08-18T04:27:01.709Z,49.00
2022-08-18T04:29:29.505Z,48.53
2022-08-18T04:31:57.243Z,48.21
2022-08-18T04:34:27.734Z,48.10
2022-08-18T04:36:55.403Z,47.61
2022-08-18T04:39:24.130Z,47.50
2022-08-18T04:41:54.453Z,47.07
2022-08-18T04:44:22.369Z,46.65
2022-08-18T04:46:52.305Z,46.42
2022-08-18T04:49:24.116Z,46.12
2022-08-18T04:52:36.099Z,45.78
2022-08-18T04:55:02.581Z,45.23
2022-08-18T04:57:35.042Z,44.92
2022-08-18T05:00:06.241Z,44.58
2022-08-18T05:02:34.010Z,44.32
2022-08-18T05:05:03.542Z,44.38
2022-08-18T05:07:31.547Z,44.36
2022-08-18T05:09:59.998Z,43.87
2022-08-18T05:12:31.361Z,43.97
2022-08-18T05:14:58.986Z,43.75
2022-08-18T05:17:30.450Z,43.14
2022-08-18T05:20:01.046Z,43.42
2022-08-18T05:22:39.228Z,43.76
2022-08-18T05:25:09.420Z,43.18
2022-08-18T05:27:40.660Z,43.09
2022-08-18T05:30:09.264Z,42.77
2022-08-18T05:32:48.478Z,42.72
2022-08-18T05:35:32.817Z,42.01
2022-08-18T05:38:29.732Z,41.59
2022-08-18T05:41:14.136Z,41.36
2022-08-18T05:43:52.004Z,40.87
2022-08-18T05:46:26.443Z,40.76
2022-08-18T05:48:54.102Z,40.86
2022-08-18T05:51:29.528Z,40.42
2022-08-18T05:54:15.995Z,40.76
2022-08-18T05:56:48.127Z,40.54
2022-08-18T05:59:26.523Z,40.31
2022-08-18T06:02:16.407Z,40.07
2022-08-18T06:04:48.098Z,39.69
2022-08-18T06:07:27.759Z,39.62
2022-08-18T06:10:06.938Z,38.96
2022-08-18T06:12:47.144Z,38.40
2022-08-18T06:15:34.675Z,38.22
2022-08-18T06:18:28.503Z,37.85
2022-08-18T06:21:08.083Z,37.69
2022-08-18T06:23:52.226Z,37.54
2022-08-18T06:26:26.209Z,37.31
2022-08-18T06:29:15.301Z,36.98
2022-08-18T06:31:57.744Z,36.29
2022-08-18T06:34:30.451Z,36.07
2022-08-18T06:37:33.429Z,35.49
2022-08-18T06:40:02.344Z,35.71
2022-08-18T06:42:32.746Z,35.02
2022-08-18T06:45:12.820Z,34.47
2022-08-18T06:48:20.535Z,33.98
2022-08-18T06:50:53.450Z,33.81
2022-08-18T06:53:27.607Z,33.56
2022-08-18T06:55:56.543Z,33.23
2022-08-18T06:58:31.150Z,32.68
2022-08-18T07:01:07.899Z,31.71
2022-08-18T07:03:44.107Z,31.76
2022-08-18T07:06:23.560Z,31.17
2022-08-18T07:08:54.055Z,31.10
2022-08-18T07:11:24.556Z,30.75
2022-08-18T07:14:15.168Z,30.38
2022-08-18T07:17:00.317Z,30.09
2022-08-18T07:19:32.447Z,29.46
2022-08-18T07:22:05.442Z,29.17
2022-08-18T07:24:39.496Z,28.56
2022-08-18T07:27:10.910Z,28.19
2022-08-18T07:29:59.393Z,27.60
2022-08-18T07:32:35.546Z,27.39
2022-08-18T07:35:07.265Z,26.69
2022-08-18T07:37:53.398Z,26.51
2022-08-18T07:40:42.139Z,25.61
2022-08-18T07:43:27.357Z,25.91
2022-08-18T07:46:10.322Z,25.30
2022-08-18T07:48:41.122Z,24.91
2022-08-18T07:51:18.848Z,24.57
2022-08-18T07:54:49.879Z,23.94
2022-08-18T07:57:20.451Z,23.41
2022-08-18T08:00:10.485Z,22.97
2022-08-18T08:02:56.402Z,22.69
2022-08-18T08:06:02.606Z,22.49
2022-08-18T08:08:39.953Z,21.66
2022-08-18T08:11:39.377Z,20.88
2022-08-18T08:14:26.718Z,20.92
2022-08-18T08:17:05.192Z,20.20
2022-08-18T08:20:09.687Z,20.70
2022-08-18T08:23:05.319Z,20.50
2022-08-18T08:25:54.344Z,19.88
2022-08-18T08:28:55.905Z,19.80
2022-08-18T08:31:55.210Z,19.39
2022-08-18T08:34:31.564Z,18.79
2022-08-18T08:37:03.942Z,18.14
2022-08-18T08:39:43.053Z,18.20
2022-08-18T08:42:31.652Z,17.33
2022-08-18T08:45:13.681Z,17.78
2022-08-18T08:47:53.664Z,16.52
2022-08-18T08:50:26.765Z,16.84
2022-08-18T08:53:01.107Z,16.99
2022-08-18T08:55:32.634Z,16.46
2022-08-18T08:58:17.280Z,16.36
2022-08-18T09:00:46.292Z,16.77
2022-08-18T09:03:30.539Z,16.75
2022-08-18T09:06:49.760Z,16.82
2022-08-18T09:09:26.471Z,16.38
2022-08-18T09:12:02.291Z,15.75
2022-08-18T09:14:41.655Z,15.45
2022-08-18T09:17:12.025Z,14.93
2022-08-18T09:20:28.316Z,14.50
2022-08-18T09:23:33.018Z,14.90
2022-08-18T09:26:25.575Z,14.39
2022-08-18T09:28:56.621Z,14.31
2022-08-18T09:31:25.916Z,14.37
2022-08-18T09:34:09.750Z,14.02
2022-08-18T09:37:25.805Z,14.34
2022-08-18T09:41:02.551Z,13.88
2022-08-18T09:43:55.079Z,13.46
2022-08-18T09:46:41.545Z,13.00
2022-08-18T09:49:23.335Z,13.15
2022-08-18T09:51:57.569Z,13.02
2022-08-18T09:54:33.610Z,12.96
2022-08-18T09:57:05.257Z,12.50
2022-08-18T09:59:34.435Z,12.40
2022-08-18T10:02:06.447Z,12.40
2022-08-18T10:04:51.261Z,12.52
2022-08-18T10:07:43.460Z,12.46
2022-08-18T10:10:59.419Z,12.77
2022-08-18T10:13:26.286Z,13.71
2022-08-18T10:16:25.928Z,13.80
2022-08-18T10:19:03.890Z,12.82
2022-08-18T10:22:02.041Z,12.36
2022-08-18T10:27:44.688Z,11.94
2022-08-18T10:30:36.540Z,11.45
2022-08-18T10:33:54.624Z,11.13
2022-08-18T10:36:46.239Z,10.44
2022-08-18T10:39:18.767Z,10.74
2022-08-18T10:42:02.255Z,11.18
2022-08-18T10:44:34.762Z,10.91
2022-08-18T10:47:03.601Z,10.41
2022-08-18T10:49:46.683Z,10.44
2022-08-18T10:52:14.728Z,10.02
2022-08-18T10:55:11.360Z,9.92
2022-08-18T10:57:51.110Z,9.86
2022-08-18T11:00:21.736Z,9.37
2022-08-18T11:03:30.018Z,8.94
2022-08-18T11:05:47.234Z,8.73
2022-08-18T11:08:20.308Z,8.80
2022-08-18T11:11:27.295Z,8.64
2022-08-18T11:13:41.072Z,8.41
2022-08-18T11:16:42.385Z,8.39
2022-08-18T11:19:13.256Z,8.27
2022-08-18T11:21:51.417Z,8.01
2022-08-18T11:24:26.649Z,8.40
2022-08-18T11:26:58.613Z,7.96
2022-08-18T11:29:40.295Z,8.16
2022-08-18T11:32:22.374Z,7.66
2022-08-18T11:34:59.649Z,7.86
2022-08-18T11:37:48.483Z,8.08
2022-08-18T11:43:21.655Z,7.57
2022-08-18T11:46:04.497Z,7.46
2022-08-18T11:48:52.225Z,7.45
2022-08-18T11:51:32.408Z,7.25
2022-08-18T11:54:05.173Z,6.96
2022-08-18T11:56:37.607Z,6.69
2022-08-18T11:59:06.929Z,6.88
2022-08-18T12:01:54.706Z,7.20
2022-08-18T12:04:53.351Z,7.00
2022-08-18T12:07:34.336Z,7.26
2022-08-18T12:10:29.362Z,6.65
2022-08-18T12:13:00.815Z,5.95
2022-08-18T12:15:43.532Z,6.82
2022-08-18T12:18:26.031Z,6.62
2022-08-18T12:20:59.309Z,6.85
2022-08-18T12:23:28.096Z,6.77
2022-08-18T12:26:27.390Z,6.59
2022-08-18T12:29:01.595Z,6.36
2022-08-18T12:34:24.942Z,6.57
2022-08-18T12:37:01.207Z,6.84
2022-08-18T12:40:06.352Z,6.95
2022-08-18T12:42:34.977Z,6.70
2022-08-18T12:45:03.356Z,7.07
2022-08-18T12:47:53.444Z,6.93
2022-08-18T12:50:31.202Z,7.32
2022-08-18T12:53:02.113Z,7.34
2022-08-18T12:55:35.342Z,7.63
2022-08-18T12:58:27.664Z,8.13
2022-08-18T13:00:55.678Z,9.88
2022-08-18T13:03:24.550Z,10.47
2022-08-18T13:05:55.027Z,11.04
2022-08-18T13:08:38.135Z,10.65
2022-08-18T13:11:21.657Z,10.34
2022-08-18T13:13:55.105Z,9.94
2022-08-18T13:16:53.353Z,10.58
2022-08-18T13:19:22.280Z,11.49
2022-08-18T13:21:49.793Z,12.97
2022-08-18T13:24:21.923Z,14.39
2022-08-18T13:26:51.696Z,15.38
2022-08-18T13:29:19.918Z,16.17
2022-08-18T13:31:57.819Z,17.10
2022-08-18T13:34:30.129Z,18.01
2022-08-18T13:36:58.307Z,18.06
2022-08-18T13:39:33.878Z,18.62
2022-08-18T13:42:22.453Z,18.92
2022-08-18T13:44:53.463Z,19.03
2022-08-18T13:47:22.643Z,19.16
2022-08-18T13:49:58.222Z,19.29
2022-08-18T13:52:35.653Z,19.65
2022-08-18T13:55:08.030Z,19.90
2022-08-18T13:57:39.078Z,20.54
2022-08-18T14:00:18.267Z,20.31
2022-08-18T14:02:53.800Z,21.06
2022-08-18T14:05:22.275Z,21.18
2022-08-18T14:08:19.052Z,21.55
2022-08-18T14:10:54.313Z,21.89
2022-08-18T14:13:25.007Z,22.19
2022-08-18T14:15:55.882Z,22.57
2022-08-18T14:18:28.941Z,22.89
2022-08-18T14:21:23.058Z,23.00
2022-08-18T14:24:10.325Z,23.39
2022-08-18T14:26:51.259Z,23.50
2022-08-18T14:29:45.624Z,24.21
2022-08-18T14:32:07.573Z,23.75
2022-08-18T14:34:35.730Z,23.99
2022-08-18T14:37:04.098Z,24.47
2022-08-18T14:39:31.751Z,24.70
2022-08-18T14:41:59.767Z,24.64
2022-08-18T14:44:32.606Z,24.72
2022-08-18T14:47:00.321Z,25.14
2022-08-18T14:49:29.472Z,25.24
2022-08-18T14:51:59.602Z,25.20
2022-08-18T14:54:28.716Z,25.58
2022-08-18T14:56:59.955Z,25.39
2022-08-18T14:59:28.825Z,25.06
2022-08-18T15:01:58.524Z,25.30
2022-08-18T15:04:27.802Z,25.77
2022-08-18T15:06:56.790Z,25.78
2022-08-18T15:09:27.175Z,25.54
2022-08-18T15:11:58.482Z,25.90
2022-08-18T15:14:32.913Z,25.83
2022-08-18T15:17:12.030Z,25.87
2022-08-18T15:20:00.556Z,25.77
2022-08-18T15:22:50.099Z,25.76
2022-08-18T15:25:36.389Z,25.04
2022-08-18T15:28:04.735Z,25.22
2022-08-18T15:30:32.568Z,25.16
2022-08-18T15:33:03.224Z,25.34
2022-08-18T15:35:32.579Z,25.21
2022-08-18T15:38:00.905Z,25.37
2022-08-18T15:40:41.350Z,24.77
2022-08-18T15:43:11.128Z,25.46
2022-08-18T15:45:56.294Z,25.38
2022-08-18T15:48:26.612Z,25.59
2022-08-18T15:50:54.516Z,25.31
2022-08-18T15:53:25.584Z,25.80
2022-08-18T15:56:04.196Z,25.54
2022-08-18T15:58:32.159Z,25.51
2022-08-18T16:00:59.734Z,25.94
2022-08-18T16:03:28.271Z,25.97
2022-08-18T16:05:56.596Z,26.23
2022-08-18T16:08:25.769Z,26.38
2022-08-18T16:10:54.768Z,26.44
2022-08-18T16:13:26.378Z,26.77
2022-08-18T16:15:53.941Z,26.67
2022-08-18T16:18:21.534Z,26.93
2022-08-18T16:20:50.671Z,26.98
2022-08-18T16:23:20.830Z,27.14
2022-08-18T16:25:50.136Z,27.24
2022-08-18T16:28:17.727Z,27.36
2022-08-18T16:30:46.858Z,27.75
2022-08-18T16:33:14.408Z,27.94
2022-08-18T16:35:42.415Z,28.42
2022-08-18T16:38:13.014Z,28.50
2022-08-18T16:40:41.359Z,28.53
2022-08-18T16:43:10.530Z,28.43
2022-08-18T16:45:38.705Z,28.44
2022-08-18T16:48:16.616Z,28.97
2022-08-18T16:50:45.439Z,28.85
2022-08-18T16:53:13.123Z,29.47
2022-08-18T16:55:43.361Z,29.50
2022-08-18T16:58:29.271Z,29.94
2022-08-18T17:01:18.977Z,29.78
2022-08-18T17:04:13.744Z,30.00
2022-08-18T17:06:48.179Z,30.77
2022-08-18T17:09:22.454Z,30.81
2022-08-18T17:11:52.358Z,30.72
2022-08-18T17:14:26.687Z,31.12
2022-08-18T17:16:56.245Z,31.22
2022-08-18T17:19:26.299Z,31.44
2022-08-18T17:21:59.262Z,31.53
2022-08-18T17:24:31.911Z,31.47
2022-08-18T17:27:27.199Z,31.90
2022-08-18T17:30:04.757Z,32.33
2022-08-18T17:32:48.153Z,32.53
2022-08-18T17:35:29.052Z,32.56
2022-08-18T17:38:15.683Z,32.56
2022-08-18T17:40:48.046Z,33.17
2022-08-18T17:43:18.378Z,32.87
2022-08-18T17:45:59.051Z,33.15
2022-08-18T17:48:42.390Z,33.81
2022-08-18T17:51:34.142Z,33.68
2022-08-18T17:54:17.448Z,33.67
2022-08-18T17:57:01.560Z,33.97
2022-08-18T17:59:45.671Z,33.74
2022-08-18T18:02:30.011Z,34.17
2022-08-18T18:05:03.119Z,34.19
2022-08-18T18:07:38.517Z,34.79
2022-08-18T18:10:12.490Z,34.71
2022-08-18T18:12:40.937Z,34.60
2022-08-18T18:15:12.164Z,35.15
2022-08-18T18:17:42.474Z,35.37
2022-08-18T18:20:32.926Z,35.81
2022-08-18T18:23:21.251Z,35.47
2022-08-18T18:25:50.391Z,35.71
2022-08-18T18:28:44.024Z,36.08
2022-08-18T18:31:29.334Z,36.09
2022-08-18T18:34:23.013Z,36.42
2022-08-18T18:36:52.148Z,36.18
2022-08-18T18:39:33.788Z,36.45
2022-08-18T18:42:24.011Z,36.50
2022-08-18T18:44:55.019Z,36.63
2022-08-18T18:47:44.033Z,36.34
2022-08-18T18:50:18.596Z,36.98
2022-08-18T18:52:57.153Z,37.03
2022-08-18T18:55:28.222Z,36.70
2022-08-18T18:58:27.478Z,37.35
2022-08-18T19:01:00.324Z,37.27
2022-08-18T19:03:33.867Z,37.08
2022-08-18T19:06:22.610Z,37.68
2022-08-18T19:09:11.229Z,37.84
2022-08-18T19:12:06.493Z,37.87
2022-08-18T19:14:39.502Z,38.23
2022-08-18T19:17:36.223Z,37.91
2022-08-18T19:20:21.007Z,38.02
2022-08-18T19:23:18.281Z,38.28
2022-08-18T19:26:02.544Z,37.79
2022-08-18T19:29:08.926Z,38.18
2022-08-18T19:31:40.114Z,38.30
2022-08-18T19:34:22.901Z,38.25
2022-08-18T19:37:09.974Z,38.39
2022-08-18T19:39:42.812Z,38.14
2022-08-18T19:42:24.822Z,38.74
2022-08-18T19:45:15.779Z,38.48
2022-08-18T19:47:49.653Z,38.97
2022-08-18T19:50:42.547Z,39.24
2022-08-18T19:53:52.297Z,38.75
2022-08-18T19:56:32.918Z,39.04
2022-08-18T19:59:18.555Z,39.08
2022-08-18T20:01:52.222Z,39.61
2022-08-18T20:04:43.619Z,39.76
2022-08-18T20:07:16.867Z,39.54
2022-08-18T20:10:01.865Z,40.18
2022-08-18T20:12:56.819Z,40.17
2022-08-18T20:15:27.112Z,40.22
2022-08-18T20:17:57.500Z,40.11
2022-08-18T20:20:40.196Z,40.61
2022-08-18T20:23:34.190Z,40.69
2022-08-18T20:26:01.891Z,40.49
2022-08-18T20:28:36.308Z,41.25
2022-08-18T20:31:13.838Z,41.32
2022-08-18T20:33:46.952Z,41.49
2022-08-18T20:36:29.187Z,41.61
2022-08-18T20:39:02.191Z,41.91
2022-08-18T20:41:30.153Z,41.78
2022-08-18T20:44:09.693Z,42.13
2022-08-18T20:47:14.633Z,42.07
2022-08-18T20:50:23.579Z,42.82
2022-08-18T20:53:12.719Z,42.61
2022-08-18T20:56:32.268Z,43.68
2022-08-18T20:59:08.714Z,43.24
2022-08-18T21:01:38.707Z,43.13
2022-08-18T21:04:08.823Z,43.63
2022-08-18T21:06:42.189Z,43.55
2022-08-18T21:09:10.719Z,43.46
2022-08-18T21:11:45.523Z,43.59
2022-08-18T21:14:23.077Z,43.46
2022-08-18T21:16:50.602Z,43.46
2022-08-18T21:19:27.954Z,43.61
2022-08-18T21:22:04.463Z,43.71
2022-08-18T21:24:34.634Z,43.19
2022-08-18T21:27:27.508Z,42.83
2022-08-18T21:29:59.048Z,42.56
2022-08-18T21:32:49.398Z,42.49
2022-08-18T21:35:23.387Z,42.64
2022-08-18T21:38:14.692Z,42.66
2022-08-18T21:40:46.949Z,42.31
2022-08-18T21:43:36.135Z,42.13
2022-08-18T21:46:04.494Z,41.97
2022-08-18T21:48:34.469Z,42.04
2022-08-18T21:51:04.029Z,42.03
2022-08-18T21:53:33.925Z,42.49
2022-08-18T21:56:04.541Z,43.01
2022-08-18T21:58:42.376Z,43.05
2022-08-18T22:01:31.803Z,43.75
2022-08-18T22:04:01.999Z,43.48
2022-08-18T22:06:36.195Z,43.52
2022-08-18T22:09:30.286Z,44.23
2022-08-18T22:12:37.784Z,44.11
2022-08-18T22:15:16.039Z,44.22
2022-08-18T22:18:00.499Z,44.48
2022-08-18T22:20:47.417Z,44.54
2022-08-18T22:23:33.340Z,44.06
2022-08-18T22:26:17.550Z,44.66
2022-08-18T22:29:02.247Z,44.62
2022-08-18T22:31:56.007Z,43.99
2022-08-18T22:34:29.113Z,43.92
2022-08-18T22:37:06.686Z,43.80
2022-08-18T22:39:37.888Z,43.64
2022-08-18T22:42:09.728Z,43.52
2022-08-18T22:44:38.063Z,43.27
2022-08-18T22:47:13.168Z,43.02
2022-08-18T22:49:40.853Z,42.61
2022-08-18T22:52:19.060Z,43.00
2022-08-18T22:54:46.770Z,42.28
2022-08-18T22:57:23.603Z,42.52
2022-08-18T22:59:51.578Z,41.88
2022-08-18T23:02:22.074Z,41.96
2022-08-18T23:04:50.206Z,41.24
2022-08-18T23:07:24.852Z,41.69
2022-08-18T23:09:54.848Z,41.52
2022-08-18T23:12:22.447Z,41.23
2022-08-18T23:14:50.060Z,41.31
2022-08-18T23:17:17.921Z,41.26
2022-08-18T23:19:47.078Z,41.40
2022-08-18T23:22:15.015Z,41.33
2022-08-18T23:24:42.956Z,41.11
2022-08-18T23:27:10.662Z,41.28
2022-08-18T23:29:41.278Z,41.45
2022-08-18T23:32:09.023Z,41.13
2022-08-18T23:34:36.967Z,41.03
2022-08-18T23:37:05.186Z,41.06
2022-08-18T23:39:34.954Z,41.02
2022-08-18T23:42:06.781Z,41.04
2022-08-18T23:44:34.533Z,41.26
2022-08-18T23:47:02.437Z,40.91
2022-08-18T23:49:30.535Z,41.30
2022-08-18T23:51:59.729Z,40.97
2022-08-18T23:54:33.366Z,41.56
2022-08-18T23:57:01.507Z,41.42
2022-08-18T23:59:29.753Z,41.86
